createdAt,value
2019-04-10T09:51:01.369Z,157.50
2019-04-10T09:52:01.128Z,185.62
2019-04-10T09:53:02.091Z,247.50
2019-04-10T09:54:01.480Z,478.12
2019-04-10T09:55:01.060Z,551.25
2019-04-10T09:56:01.064Z,528.75
2019-04-10T09:57:01.267Z,534.37
2019-04-10T09:58:01.904Z,500.62
2019-04-10T09:59:01.034Z,517.50
2019-04-10T10:00:01.051Z,540.00
2019-04-10T10:01:01.646Z,568.12
2019-04-10T10:02:01.018Z,585.00
2019-04-10T10:03:01.512Z,888.75
2019-04-10T10:04:01.260Z,1198.12
2019-04-10T10:05:02.176Z,1237.50
2019-04-10T10:06:01.819Z,1158.75
2019-04-10T10:07:01.938Z,1091.25
2019-04-10T10:08:02.125Z,877.50
2019-04-10T10:09:00.970Z,821.25
2019-04-10T10:10:01.566Z,416.25
2019-04-10T10:11:01.855Z,393.75
2019-04-10T10:12:01.106Z,309.37
2019-04-10T10:13:01.209Z,303.75
2019-04-10T10:14:01.894Z,202.50
2019-04-10T10:15:00.943Z,258.75
2019-04-10T10:16:00.937Z,208.12
2019-04-10T10:17:01.233Z,157.50
2019-04-10T10:18:01.305Z,146.25
2019-04-10T10:19:01.560Z,135.00
2019-04-10T10:20:01.793Z,140.62
2019-04-10T10:21:01.871Z,140.62
2019-04-10T10:22:03.403Z,129.37
2019-04-10T10:23:01.333Z,123.75
2019-04-10T10:24:00.893Z,118.12
2019-04-10T10:25:00.890Z,112.50
2019-04-10T10:26:01.718Z,106.87
2019-04-10T10:27:01.901Z,101.25
2019-04-10T10:28:00.869Z,95.62
2019-04-10T10:29:00.863Z,90.00
2019-04-10T10:30:02.080Z,84.37
2019-04-10T10:31:01.878Z,84.37
2019-04-10T10:32:00.843Z,78.75
2019-04-10T10:33:01.492Z,78.75
2019-04-10T10:34:01.874Z,78.75
2019-04-10T10:35:01.078Z,78.75
2019-04-10T10:36:00.819Z,73.12
2019-04-10T10:37:03.476Z,73.12
2019-04-10T10:38:01.100Z,73.12
2019-04-10T10:39:06.852Z,73.12
2019-04-10T10:40:29.716Z,73.12
2019-04-10T10:41:28.514Z,73.12
2019-04-10T10:42:29.694Z,73.12
2019-04-10T10:43:28.851Z,73.12
2019-04-10T10:44:28.495Z,73.12
2019-04-10T10:45:29.066Z,73.12
2019-04-10T10:46:28.494Z,78.75
2019-04-10T10:47:29.302Z,78.75
2019-04-10T10:48:29.485Z,84.37
2019-04-10T10:49:28.613Z,84.37
2019-04-10T10:50:29.033Z,84.37
2019-04-10T10:51:28.917Z,84.37
2019-04-10T10:52:28.519Z,84.37
2019-04-10T10:53:28.558Z,84.37
2019-04-10T10:54:29.428Z,90.00
2019-04-10T10:55:29.615Z,90.00
2019-04-10T10:56:28.675Z,90.00
2019-04-10T10:57:28.464Z,95.62
2019-04-10T10:58:28.475Z,95.62
2019-04-10T10:59:29.410Z,95.62
2019-04-10T11:00:29.426Z,95.62
2019-04-10T11:01:29.494Z,95.62
2019-04-10T11:02:29.559Z,95.62
2019-04-10T11:03:28.385Z,90.00
2019-04-10T11:04:29.504Z,90.00
2019-04-10T11:05:30.804Z,90.00
2019-04-10T11:06:28.429Z,90.00
2019-04-10T11:07:28.800Z,90.00
2019-04-10T11:08:29.476Z,84.37
2019-04-10T11:09:28.540Z,84.37
2019-04-10T11:10:29.781Z,84.37
2019-04-10T11:11:28.335Z,84.37
2019-04-10T11:12:28.329Z,78.75
2019-04-10T11:13:28.560Z,78.75
2019-04-10T11:14:29.817Z,73.12
2019-04-10T11:15:28.317Z,73.12
2019-04-10T11:16:29.361Z,67.50
2019-04-10T11:17:29.720Z,67.50
2019-04-10T11:18:28.664Z,61.87
2019-04-10T11:19:29.067Z,61.87
2019-04-10T11:20:28.374Z,61.87
2019-04-10T11:21:28.295Z,67.50
2019-04-10T11:22:29.011Z,67.50
2019-04-10T11:23:28.495Z,67.50
2019-04-10T11:24:28.289Z,67.50
2019-04-10T11:25:28.629Z,67.50
2019-04-10T11:26:30.091Z,67.50
2019-04-10T11:27:29.401Z,67.50
2019-04-10T11:28:30.239Z,67.50
2019-04-10T11:29:28.762Z,67.50
2019-04-10T11:30:28.752Z,67.50
2019-04-10T11:31:29.139Z,67.50
2019-04-10T11:32:28.940Z,67.50
2019-04-10T11:33:28.435Z,61.87
2019-04-10T11:34:29.203Z,61.87
2019-04-10T11:35:29.020Z,61.87
2019-04-10T11:36:28.301Z,56.25
2019-04-10T11:37:37.503Z,56.25
2019-04-10T11:39:05.009Z,56.25
2019-04-10T11:40:26.273Z,56.25
2019-04-10T11:41:25.961Z,56.25
2019-04-10T11:42:23.660Z,56.25
2019-04-10T11:43:24.874Z,56.25
2019-04-10T11:44:24.920Z,56.25
2019-04-10T11:45:25.502Z,56.25
2019-04-10T11:46:28.029Z,56.25
